sensor_id;sensor_type;location;lat;lon;timestamp;P1;durP1;ratioP1;P2;durP2;ratioP2
59520;SDS011;54898;40.918;14.476;2022-08-21T00:01:51;11.75;;;4.38;;
59520;SDS011;54898;40.918;14.476;2022-08-21T00:04:19;8.98;;;4.00;;
59520;SDS011;54898;40.918;14.476;2022-08-21T00:06:46;8.00;;;4.00;;
59520;SDS011;54898;40.918;14.476;2022-08-21T00:09:12;10.88;;;4.57;;
59520;SDS011;54898;40.918;14.476;2022-08-21T00:11:38;9.25;;;3.90;;
59520;SDS011;54898;40.918;14.476;2022-08-21T00:14:05;11.30;;;3.92;;
59520;SDS011;54898;40.918;14.476;2022-08-21T00:16:32;8.75;;;4.05;;
59520;SDS011;54898;40.918;14.476;2022-08-21T00:18:58;12.15;;;4.10;;
59520;SDS011;54898;40.918;14.476;2022-08-21T00:21:28;8.82;;;4.10;;
59520;SDS011;54898;40.918;14.476;2022-08-21T00:26:23;9.98;;;4.20;;
59520;SDS011;54898;40.918;14.476;2022-08-21T00:28:49;7.07;;;3.92;;
59520;SDS011;54898;40.918;14.476;2022-08-21T00:31:15;9.20;;;4.45;;
59520;SDS011;54898;40.918;14.476;2022-08-21T00:33:41;9.07;;;3.80;;
59520;SDS011;54898;40.918;14.476;2022-08-21T00:36:08;8.68;;;3.75;;
59520;SDS011;54898;40.918;14.476;2022-08-21T00:38:36;7.85;;;3.72;;
59520;SDS011;54898;40.918;14.476;2022-08-21T00:41:06;8.23;;;4.13;;
59520;SDS011;54898;40.918;14.476;2022-08-21T00:43:34;7.47;;;4.20;;
59520;SDS011;54898;40.918;14.476;2022-08-21T00:46:02;7.70;;;4.40;;
59520;SDS011;54898;40.918;14.476;2022-08-21T00:48:28;12.57;;;4.22;;
59520;SDS011;54898;40.918;14.476;2022-08-21T00:50:55;12.98;;;4.45;;
59520;SDS011;54898;40.918;14.476;2022-08-21T00:53:22;10.32;;;4.60;;
59520;SDS011;54898;40.918;14.476;2022-08-21T00:55:51;9.80;;;4.20;;
59520;SDS011;54898;40.918;14.476;2022-08-21T00:58:18;8.00;;;4.45;;
59520;SDS011;54898;40.918;14.476;2022-08-21T01:00:45;8.77;;;3.88;;
59520;SDS011;54898;40.918;14.476;2022-08-21T01:03:14;9.35;;;4.22;;
59520;SDS011;54898;40.918;14.476;2022-08-21T01:05:42;6.93;;;4.25;;
59520;SDS011;54898;40.918;14.476;2022-08-21T01:08:08;9.80;;;4.13;;
59520;SDS011;54898;40.918;14.476;2022-08-21T01:10:35;7.63;;;3.85;;
59520;SDS011;54898;40.918;14.476;2022-08-21T01:13:04;8.10;;;4.20;;
59520;SDS011;54898;40.918;14.476;2022-08-21T01:15:33;9.82;;;4.03;;
59520;SDS011;54898;40.918;14.476;2022-08-21T01:18:01;8.70;;;3.60;;
59520;SDS011;54898;40.918;14.476;2022-08-21T01:20:27;10.73;;;3.92;;
59520;SDS011;54898;40.918;14.476;2022-08-21T01:22:55;7.43;;;3.47;;
59520;SDS011;54898;40.918;14.476;2022-08-21T01:25:22;10.15;;;4.15;;
59520;SDS011;54898;40.918;14.476;2022-08-21T01:27:48;9.98;;;3.50;;
59520;SDS011;54898;40.918;14.476;2022-08-21T01:30:16;5.90;;;3.45;;
59520;SDS011;54898;40.918;14.476;2022-08-21T01:32:42;8.65;;;3.70;;
59520;SDS011;54898;40.918;14.476;2022-08-21T01:35:09;9.68;;;3.97;;
59520;SDS011;54898;40.918;14.476;2022-08-21T01:37:35;6.40;;;3.10;;
59520;SDS011;54898;40.918;14.476;2022-08-21T01:40:05;8.18;;;3.35;;
59520;SDS011;54898;40.918;14.476;2022-08-21T01:42:32;11.55;;;3.90;;
59520;SDS011;54898;40.918;14.476;2022-08-21T01:44:58;11.50;;;3.70;;
59520;SDS011;54898;40.918;14.476;2022-08-21T01:47:25;9.88;;;3.72;;
59520;SDS011;54898;40.918;14.476;2022-08-21T01:49:51;11.48;;;3.60;;
59520;SDS011;54898;40.918;14.476;2022-08-21T01:52:17;9.52;;;3.47;;
59520;SDS011;54898;40.918;14.476;2022-08-21T01:54:44;10.52;;;3.22;;
59520;SDS011;54898;40.918;14.476;2022-08-21T01:57:11;8.30;;;3.13;;
59520;SDS011;54898;40.918;14.476;2022-08-21T01:59:38;10.80;;;3.85;;
59520;SDS011;54898;40.918;14.476;2022-08-21T02:02:05;8.88;;;3.20;;
59520;SDS011;54898;40.918;14.476;2022-08-21T02:04:31;11.27;;;3.65;;
59520;SDS011;54898;40.918;14.476;2022-08-21T02:06:57;8.35;;;3.70;;
59520;SDS011;54898;40.918;14.476;2022-08-21T02:09:26;9.90;;;3.83;;
59520;SDS011;54898;40.918;14.476;2022-08-21T02:11:52;7.45;;;3.97;;
59520;SDS011;54898;40.918;14.476;2022-08-21T02:14:19;10.60;;;3.50;;
59520;SDS011;54898;40.918;14.476;2022-08-21T02:16:45;7.25;;;3.72;;
59520;SDS011;54898;40.918;14.476;2022-08-21T02:19:13;6.55;;;3.58;;
59520;SDS011;54898;40.918;14.476;2022-08-21T02:21:39;9.82;;;3.85;;
59520;SDS011;54898;40.918;14.476;2022-08-21T02:24:06;7.32;;;3.60;;
59520;SDS011;54898;40.918;14.476;2022-08-21T02:26:35;8.70;;;3.75;;
59520;SDS011;54898;40.918;14.476;2022-08-21T02:29:02;6.05;;;3.65;;
59520;SDS011;54898;40.918;14.476;2022-08-21T02:31:30;12.30;;;3.92;;
59520;SDS011;54898;40.918;14.476;2022-08-21T02:33:57;6.75;;;3.70;;
59520;SDS011;54898;40.918;14.476;2022-08-21T02:36:23;7.32;;;4.22;;
59520;SDS011;54898;40.918;14.476;2022-08-21T02:38:49;7.13;;;4.00;;
59520;SDS011;54898;40.918;14.476;2022-08-21T04:35:14;9.40;;;3.72;;
59520;SDS011;54898;40.918;14.476;2022-08-21T04:37:40;5.73;;;3.60;;
59520;SDS011;54898;40.918;14.476;2022-08-21T04:40:07;7.50;;;3.30;;
59520;SDS011;54898;40.918;14.476;2022-08-21T04:42:39;8.85;;;3.90;;
59520;SDS011;54898;40.918;14.476;2022-08-21T04:45:06;7.10;;;3.60;;
59520;SDS011;54898;40.918;14.476;2022-08-21T04:47:32;8.18;;;3.80;;
59520;SDS011;54898;40.918;14.476;2022-08-21T04:49:59;7.57;;;3.25;;
59520;SDS011;54898;40.918;14.476;2022-08-21T04:52:26;10.18;;;3.38;;
59520;SDS011;54898;40.918;14.476;2022-08-21T04:54:52;8.52;;;3.70;;
59520;SDS011;54898;40.918;14.476;2022-08-21T04:57:19;6.32;;;3.50;;
59520;SDS011;54898;40.918;14.476;2022-08-21T04:59:46;7.75;;;3.47;;
59520;SDS011;54898;40.918;14.476;2022-08-21T05:02:13;8.52;;;3.60;;
59520;SDS011;54898;40.918;14.476;2022-08-21T05:04:41;7.55;;;3.38;;
59520;SDS011;54898;40.918;14.476;2022-08-21T05:07:10;5.30;;;3.20;;
59520;SDS011;54898;40.918;14.476;2022-08-21T05:09:38;7.05;;;3.17;;
59520;SDS011;54898;40.918;14.476;2022-08-21T05:12:05;6.35;;;3.40;;
59520;SDS011;54898;40.918;14.476;2022-08-21T05:14:31;7.63;;;3.63;;
59520;SDS011;54898;40.918;14.476;2022-08-21T05:16:57;7.90;;;3.42;;
59520;SDS011;54898;40.918;14.476;2022-08-21T05:19:24;8.30;;;3.10;;
59520;SDS011;54898;40.918;14.476;2022-08-21T05:21:51;6.00;;;3.55;;
59520;SDS011;54898;40.918;14.476;2022-08-21T05:24:17;7.03;;;3.30;;
59520;SDS011;54898;40.918;14.476;2022-08-21T05:26:45;4.47;;;3.25;;
59520;SDS011;54898;40.918;14.476;2022-08-21T05:29:12;7.63;;;3.28;;
59520;SDS011;54898;40.918;14.476;2022-08-21T05:31:38;6.07;;;3.10;;
59520;SDS011;54898;40.918;14.476;2022-08-21T05:34:04;5.65;;;3.22;;
59520;SDS011;54898;40.918;14.476;2022-08-21T05:36:30;7.43;;;3.40;;
59520;SDS011;54898;40.918;14.476;2022-08-21T05:38:57;8.88;;;3.50;;
59520;SDS011;54898;40.918;14.476;2022-08-21T05:41:23;9.88;;;3.33;;
59520;SDS011;54898;40.918;14.476;2022-08-21T05:43:51;9.93;;;3.53;;
59520;SDS011;54898;40.918;14.476;2022-08-21T05:46:17;7.18;;;3.08;;
59520;SDS011;54898;40.918;14.476;2022-08-21T05:48:43;11.48;;;4.70;;
59520;SDS011;54898;40.918;14.476;2022-08-21T05:51:11;13.05;;;6.13;;
59520;SDS011;54898;40.918;14.476;2022-08-21T05:53:38;9.93;;;6.68;;
59520;SDS011;54898;40.918;14.476;2022-08-21T05:56:05;10.68;;;5.38;;
59520;SDS011;54898;40.918;14.476;2022-08-21T05:58:32;8.50;;;4.10;;
59520;SDS011;54898;40.918;14.476;2022-08-21T06:01:00;7.32;;;3.95;;
59520;SDS011;54898;40.918;14.476;2022-08-21T06:03:27;7.05;;;3.05;;
59520;SDS011;54898;40.918;14.476;2022-08-21T06:05:54;7.90;;;3.00;;
59520;SDS011;54898;40.918;14.476;2022-08-21T06:08:21;7.53;;;3.30;;
59520;SDS011;54898;40.918;14.476;2022-08-21T06:10:48;5.28;;;2.90;;
59520;SDS011;54898;40.918;14.476;2022-08-21T06:13:15;9.30;;;3.10;;
59520;SDS011;54898;40.918;14.476;2022-08-21T06:15:42;8.98;;;3.22;;
59520;SDS011;54898;40.918;14.476;2022-08-21T06:18:10;6.70;;;3.10;;
59520;SDS011;54898;40.918;14.476;2022-08-21T06:20:36;11.00;;;3.00;;
59520;SDS011;54898;40.918;14.476;2022-08-21T06:23:03;7.85;;;2.92;;
59520;SDS011;54898;40.918;14.476;2022-08-21T06:25:29;12.05;;;3.20;;
59520;SDS011;54898;40.918;14.476;2022-08-21T06:28:00;10.10;;;3.20;;
59520;SDS011;54898;40.918;14.476;2022-08-21T06:30:26;8.95;;;3.22;;
59520;SDS011;54898;40.918;14.476;2022-08-21T06:32:53;11.57;;;3.30;;
59520;SDS011;54898;40.918;14.476;2022-08-21T06:35:20;5.38;;;3.33;;
59520;SDS011;54898;40.918;14.476;2022-08-21T06:37:47;7.63;;;3.35;;
59520;SDS011;54898;40.918;14.476;2022-08-21T06:40:13;7.70;;;3.05;;
59520;SDS011;54898;40.918;14.476;2022-08-21T06:42:39;11.93;;;3.45;;
59520;SDS011;54898;40.918;14.476;2022-08-21T06:45:05;4.85;;;2.80;;
59520;SDS011;54898;40.918;14.476;2022-08-21T06:47:32;7.75;;;2.97;;
59520;SDS011;54898;40.918;14.476;2022-08-21T06:49:58;6.78;;;3.10;;
59520;SDS011;54898;40.918;14.476;2022-08-21T06:52:26;6.70;;;2.60;;
59520;SDS011;54898;40.918;14.476;2022-08-21T06:54:52;8.60;;;3.33;;
59520;SDS011;54898;40.918;14.476;2022-08-21T06:57:18;7.57;;;3.38;;
59520;SDS011;54898;40.918;14.476;2022-08-21T06:59:45;7.60;;;2.90;;
59520;SDS011;54898;40.918;14.476;2022-08-21T07:02:11;6.10;;;2.97;;
59520;SDS011;54898;40.918;14.476;2022-08-21T07:04:37;12.07;;;2.95;;
59520;SDS011;54898;40.918;14.476;2022-08-21T07:07:03;8.05;;;2.72;;
59520;SDS011;54898;40.918;14.476;2022-08-21T07:09:31;9.07;;;2.55;;
59520;SDS011;54898;40.918;14.476;2022-08-21T07:11:57;6.78;;;2.60;;
59520;SDS011;54898;40.918;14.476;2022-08-21T07:14:23;13.70;;;3.28;;
59520;SDS011;54898;40.918;14.476;2022-08-21T07:16:49;9.70;;;2.78;;
59520;SDS011;54898;40.918;14.476;2022-08-21T07:19:17;8.68;;;3.10;;
59520;SDS011;54898;40.918;14.476;2022-08-21T07:21:43;5.68;;;2.60;;
59520;SDS011;54898;40.918;14.476;2022-08-21T07:24:10;6.00;;;2.60;;
59520;SDS011;54898;40.918;14.476;2022-08-21T07:26:37;8.07;;;3.08;;
59520;SDS011;54898;40.918;14.476;2022-08-21T07:29:04;12.18;;;2.70;;
59520;SDS011;54898;40.918;14.476;2022-08-21T07:31:30;9.93;;;2.65;;
59520;SDS011;54898;40.918;14.476;2022-08-21T07:33:56;9.15;;;2.75;;
59520;SDS011;54898;40.918;14.476;2022-08-21T07:36:22;9.35;;;2.70;;
59520;SDS011;54898;40.918;14.476;2022-08-21T07:38:49;7.88;;;2.72;;
59520;SDS011;54898;40.918;14.476;2022-08-21T07:41:15;8.88;;;2.55;;
59520;SDS011;54898;40.918;14.476;2022-08-21T07:43:44;8.30;;;2.63;;
59520;SDS011;54898;40.918;14.476;2022-08-21T07:46:10;6.82;;;2.42;;
59520;SDS011;54898;40.918;14.476;2022-08-21T07:48:36;6.18;;;2.72;;
59520;SDS011;54898;40.918;14.476;2022-08-21T07:51:05;6.07;;;2.45;;
59520;SDS011;54898;40.918;14.476;2022-08-21T07:53:31;7.10;;;2.80;;
59520;SDS011;54898;40.918;14.476;2022-08-21T07:55:57;6.47;;;2.50;;
59520;SDS011;54898;40.918;14.476;2022-08-21T07:58:23;10.57;;;3.03;;
59520;SDS011;54898;40.918;14.476;2022-08-21T08:00:51;6.28;;;2.80;;
59520;SDS011;54898;40.918;14.476;2022-08-21T08:03:17;7.65;;;2.78;;
59520;SDS011;54898;40.918;14.476;2022-08-21T08:05:43;10.23;;;3.03;;
59520;SDS011;54898;40.918;14.476;2022-08-21T08:08:10;8.02;;;2.50;;
59520;SDS011;54898;40.918;14.476;2022-08-21T08:10:36;11.82;;;3.20;;
59520;SDS011;54898;40.918;14.476;2022-08-21T08:13:04;16.37;;;3.50;;
59520;SDS011;54898;40.918;14.476;2022-08-21T08:15:30;9.07;;;2.85;;
59520;SDS011;54898;40.918;14.476;2022-08-21T08:17:58;10.57;;;2.90;;
59520;SDS011;54898;40.918;14.476;2022-08-21T08:20:24;8.20;;;3.10;;
59520;SDS011;54898;40.918;14.476;2022-08-21T08:22:52;13.95;;;3.97;;
59520;SDS011;54898;40.918;14.476;2022-08-21T08:25:19;12.63;;;3.15;;
59520;SDS011;54898;40.918;14.476;2022-08-21T08:27:45;10.45;;;3.10;;
59520;SDS011;54898;40.918;14.476;2022-08-21T08:30:12;15.27;;;3.60;;
59520;SDS011;54898;40.918;14.476;2022-08-21T08:32:38;6.15;;;2.67;;
59520;SDS011;54898;40.918;14.476;2022-08-21T08:35:07;9.68;;;2.53;;
59520;SDS011;54898;40.918;14.476;2022-08-21T08:37:33;10.65;;;2.85;;
59520;SDS011;54898;40.918;14.476;2022-08-21T08:39:59;6.80;;;2.40;;
59520;SDS011;54898;40.918;14.476;2022-08-21T08:42:27;8.75;;;2.70;;
59520;SDS011;54898;40.918;14.476;2022-08-21T08:44:55;7.10;;;2.55;;
59520;SDS011;54898;40.918;14.476;2022-08-21T08:47:21;7.33;;;2.43;;
59520;SDS011;54898;40.918;14.476;2022-08-21T08:49:49;9.40;;;2.80;;
59520;SDS011;54898;40.918;14.476;2022-08-21T08:52:22;7.20;;;2.83;;
59520;SDS011;54898;40.918;14.476;2022-08-21T08:57:15;6.63;;;2.40;;
59520;SDS011;54898;40.918;14.476;2022-08-21T08:59:43;6.30;;;2.38;;
59520;SDS011;54898;40.918;14.476;2022-08-21T09:02:10;10.43;;;2.73;;
59520;SDS011;54898;40.918;14.476;2022-08-21T09:04:37;5.70;;;2.33;;
59520;SDS011;54898;40.918;14.476;2022-08-21T09:07:06;6.13;;;2.30;;
59520;SDS011;54898;40.918;14.476;2022-08-21T09:09:40;8.75;;;2.25;;
59520;SDS011;54898;40.918;14.476;2022-08-21T09:12:12;9.88;;;2.45;;
59520;SDS011;54898;40.918;14.476;2022-08-21T09:17:26;5.47;;;2.35;;
59520;SDS011;54898;40.918;14.476;2022-08-21T09:19:57;6.00;;;2.47;;
59520;SDS011;54898;40.918;14.476;2022-08-21T09:22:28;6.05;;;2.70;;
59520;SDS011;54898;40.918;14.476;2022-08-21T09:25:02;6.78;;;2.70;;
59520;SDS011;54898;40.918;14.476;2022-08-21T09:27:33;6.55;;;2.53;;
59520;SDS011;54898;40.918;14.476;2022-08-21T09:30:00;32.72;;;4.20;;
59520;SDS011;54898;40.918;14.476;2022-08-21T09:32:28;4.75;;;2.83;;
59520;SDS011;54898;40.918;14.476;2022-08-21T09:34:55;10.00;;;2.90;;
59520;SDS011;54898;40.918;14.476;2022-08-21T09:37:21;5.57;;;3.22;;
59520;SDS011;54898;40.918;14.476;2022-08-21T09:39:47;3.70;;;2.90;;
59520;SDS011;54898;40.918;14.476;2022-08-21T09:42:21;6.18;;;3.17;;
59520;SDS011;54898;40.918;14.476;2022-08-21T09:44:47;4.43;;;3.10;;
59520;SDS011;54898;40.918;14.476;2022-08-21T09:47:13;6.25;;;3.17;;
59520;SDS011;54898;40.918;14.476;2022-08-21T09:49:40;6.53;;;4.15;;
59520;SDS011;54898;40.918;14.476;2022-08-21T09:52:13;7.85;;;3.28;;
59520;SDS011;54898;40.918;14.476;2022-08-21T09:54:41;11.55;;;3.65;;
59520;SDS011;54898;40.918;14.476;2022-08-21T09:57:12;5.90;;;3.03;;
59520;SDS011;54898;40.918;14.476;2022-08-21T10:00:06;8.02;;;3.40;;
59520;SDS011;54898;40.918;14.476;2022-08-21T10:02:34;6.78;;;3.40;;
59520;SDS011;54898;40.918;14.476;2022-08-21T10:05:01;3.90;;;3.50;;
59520;SDS011;54898;40.918;14.476;2022-08-21T10:07:28;5.93;;;3.22;;
59520;SDS011;54898;40.918;14.476;2022-08-21T10:12:20;4.30;;;3.57;;
59520;SDS011;54898;40.918;14.476;2022-08-21T10:14:50;6.20;;;3.63;;
59520;SDS011;54898;40.918;14.476;2022-08-21T10:17:23;5.15;;;3.90;;
59520;SDS011;54898;40.918;14.476;2022-08-21T10:19:54;5.25;;;3.53;;
59520;SDS011;54898;40.918;14.476;2022-08-21T10:22:24;9.13;;;4.05;;
59520;SDS011;54898;40.918;14.476;2022-08-21T10:24:54;4.28;;;3.50;;
59520;SDS011;54898;40.918;14.476;2022-08-21T10:27:23;5.47;;;3.33;;
59520;SDS011;54898;40.918;14.476;2022-08-21T10:29:51;6.78;;;3.70;;
59520;SDS011;54898;40.918;14.476;2022-08-21T10:32:27;6.00;;;3.00;;
59520;SDS011;54898;40.918;14.476;2022-08-21T10:34:57;8.77;;;3.22;;
59520;SDS011;54898;40.918;14.476;2022-08-21T10:37:27;7.93;;;3.30;;
59520;SDS011;54898;40.918;14.476;2022-08-21T10:40:00;9.55;;;3.10;;
59520;SDS011;54898;40.918;14.476;2022-08-21T10:42:32;6.05;;;3.05;;
59520;SDS011;54898;40.918;14.476;2022-08-21T10:45:02;7.45;;;3.75;;
59520;SDS011;54898;40.918;14.476;2022-08-21T10:47:32;4.20;;;2.72;;
59520;SDS011;54898;40.918;14.476;2022-08-21T10:50:02;4.15;;;2.78;;
59520;SDS011;54898;40.918;14.476;2022-08-21T10:55:11;5.30;;;3.10;;
59520;SDS011;54898;40.918;14.476;2022-08-21T10:57:40;8.82;;;2.85;;
59520;SDS011;54898;40.918;14.476;2022-08-21T11:00:10;5.43;;;2.75;;
59520;SDS011;54898;40.918;14.476;2022-08-21T11:05:05;4.53;;;2.55;;
59520;SDS011;54898;40.918;14.476;2022-08-21T11:07:34;9.05;;;2.75;;
59520;SDS011;54898;40.918;14.476;2022-08-21T11:10:02;5.82;;;2.65;;
59520;SDS011;54898;40.918;14.476;2022-08-21T11:12:31;6.13;;;2.50;;
59520;SDS011;54898;40.918;14.476;2022-08-21T11:15:00;8.75;;;2.75;;
59520;SDS011;54898;40.918;14.476;2022-08-21T11:17:30;5.43;;;2.58;;
59520;SDS011;54898;40.918;14.476;2022-08-21T11:19:59;5.78;;;2.63;;
59520;SDS011;54898;40.918;14.476;2022-08-21T11:22:31;3.03;;;2.35;;
59520;SDS011;54898;40.918;14.476;2022-08-21T11:25:00;7.63;;;2.60;;
59520;SDS011;54898;40.918;14.476;2022-08-21T11:29:55;3.40;;;2.33;;
59520;SDS011;54898;40.918;14.476;2022-08-21T11:32:31;5.47;;;2.30;;
59520;SDS011;54898;40.918;14.476;2022-08-21T11:35:02;5.57;;;2.50;;
59520;SDS011;54898;40.918;14.476;2022-08-21T11:37:34;4.60;;;2.27;;
59520;SDS011;54898;40.918;14.476;2022-08-21T11:40:04;4.22;;;2.70;;
59520;SDS011;54898;40.918;14.476;2022-08-21T11:42:33;8.00;;;2.53;;
59520;SDS011;54898;40.918;14.476;2022-08-21T11:45:07;4.72;;;2.20;;
59520;SDS011;54898;40.918;14.476;2022-08-21T11:47:40;3.33;;;2.33;;
59520;SDS011;54898;40.918;14.476;2022-08-21T11:50:13;5.15;;;2.25;;
59520;SDS011;54898;40.918;14.476;2022-08-21T11:52:42;6.43;;;2.53;;
59520;SDS011;54898;40.918;14.476;2022-08-21T11:55:11;4.20;;;2.13;;
59520;SDS011;54898;40.918;14.476;2022-08-21T11:57:39;3.85;;;2.00;;
59520;SDS011;54898;40.918;14.476;2022-08-21T12:00:11;4.30;;;2.53;;
59520;SDS011;54898;40.918;14.476;2022-08-21T12:02:41;4.68;;;2.03;;
59520;SDS011;54898;40.918;14.476;2022-08-21T12:05:09;5.82;;;2.95;;
59520;SDS011;54898;40.918;14.476;2022-08-21T12:07:38;4.70;;;3.17;;
59520;SDS011;54898;40.918;14.476;2022-08-21T12:10:07;5.53;;;3.28;;
59520;SDS011;54898;40.918;14.476;2022-08-21T12:12:35;5.22;;;2.58;;
59520;SDS011;54898;40.918;14.476;2022-08-21T12:17:52;5.93;;;3.17;;
59520;SDS011;54898;40.918;14.476;2022-08-21T12:20:23;7.78;;;3.10;;
59520;SDS011;54898;40.918;14.476;2022-08-21T12:22:50;5.10;;;2.92;;
59520;SDS011;54898;40.918;14.476;2022-08-21T12:25:20;9.43;;;3.42;;
59520;SDS011;54898;40.918;14.476;2022-08-21T12:27:47;11.40;;;3.20;;
59520;SDS011;54898;40.918;14.476;2022-08-21T12:32:44;5.78;;;2.92;;
59520;SDS011;54898;40.918;14.476;2022-08-21T12:35:13;7.45;;;2.92;;
59520;SDS011;54898;40.918;14.476;2022-08-21T12:37:42;5.40;;;2.75;;
59520;SDS011;54898;40.918;14.476;2022-08-21T12:40:14;4.13;;;2.80;;
59520;SDS011;54898;40.918;14.476;2022-08-21T12:42:45;4.85;;;2.42;;
59520;SDS011;54898;40.918;14.476;2022-08-21T12:45:14;6.55;;;2.42;;
59520;SDS011;54898;40.918;14.476;2022-08-21T12:47:44;7.75;;;2.53;;
59520;SDS011;54898;40.918;14.476;2022-08-21T12:50:12;5.05;;;2.75;;
59520;SDS011;54898;40.918;14.476;2022-08-21T12:52:50;4.30;;;2.83;;
59520;SDS011;54898;40.918;14.476;2022-08-21T12:55:26;7.43;;;2.92;;
59520;SDS011;54898;40.918;14.476;2022-08-21T12:57:54;5.38;;;3.20;;
59520;SDS011;54898;40.918;14.476;2022-08-21T13:00:21;11.82;;;3.15;;
59520;SDS011;54898;40.918;14.476;2022-08-21T13:02:48;7.60;;;2.75;;
59520;SDS011;54898;40.918;14.476;2022-08-21T13:05:16;10.70;;;2.65;;
59520;SDS011;54898;40.918;14.476;2022-08-21T13:07:46;6.18;;;3.08;;
59520;SDS011;54898;40.918;14.476;2022-08-21T13:10:14;7.72;;;2.78;;
59520;SDS011;54898;40.918;14.476;2022-08-21T13:12:42;8.38;;;3.17;;
59520;SDS011;54898;40.918;14.476;2022-08-21T13:15:10;8.15;;;3.60;;
59520;SDS011;54898;40.918;14.476;2022-08-21T13:17:38;5.25;;;2.78;;
59520;SDS011;54898;40.918;14.476;2022-08-21T13:22:31;8.68;;;2.92;;
59520;SDS011;54898;40.918;14.476;2022-08-21T13:24:57;5.47;;;2.65;;
59520;SDS011;54898;40.918;14.476;2022-08-21T13:27:25;8.05;;;2.70;;
59520;SDS011;54898;40.918;14.476;2022-08-21T13:30:05;5.65;;;2.70;;
59520;SDS011;54898;40.918;14.476;2022-08-21T13:32:34;9.18;;;1.60;;
59520;SDS011;54898;40.918;14.476;2022-08-21T13:35:10;5.22;;;1.60;;
59520;SDS011;54898;40.918;14.476;2022-08-21T13:37:38;8.18;;;1.50;;
59520;SDS011;54898;40.918;14.476;2022-08-21T13:40:06;8.70;;;1.92;;
59520;SDS011;54898;40.918;14.476;2022-08-21T13:42:33;18.05;;;2.50;;
59520;SDS011;54898;40.918;14.476;2022-08-21T13:44:59;28.75;;;3.17;;
59520;SDS011;54898;40.918;14.476;2022-08-21T13:47:25;30.48;;;4.10;;
59520;SDS011;54898;40.918;14.476;2022-08-21T13:49:53;14.68;;;3.22;;
59520;SDS011;54898;40.918;14.476;2022-08-21T13:52:20;15.90;;;3.05;;
59520;SDS011;54898;40.918;14.476;2022-08-21T13:54:52;4.97;;;1.95;;
59520;SDS011;54898;40.918;14.476;2022-08-21T13:57:19;8.75;;;3.67;;
59520;SDS011;54898;40.918;14.476;2022-08-21T13:59:46;5.07;;;2.40;;
59520;SDS011;54898;40.918;14.476;2022-08-21T14:02:12;9.98;;;2.60;;
59520;SDS011;54898;40.918;14.476;2022-08-21T14:04:39;3.53;;;1.60;;
59520;SDS011;54898;40.918;14.476;2022-08-21T14:07:15;2.78;;;1.65;;
59520;SDS011;54898;40.918;14.476;2022-08-21T14:09:43;2.50;;;1.67;;
59520;SDS011;54898;40.918;14.476;2022-08-21T14:12:11;6.10;;;1.70;;
59520;SDS011;54898;40.918;14.476;2022-08-21T14:14:38;3.13;;;1.83;;
59520;SDS011;54898;40.918;14.476;2022-08-21T14:17:06;2.22;;;1.58;;
59520;SDS011;54898;40.918;14.476;2022-08-21T14:19:37;2.20;;;1.75;;
59520;SDS011;54898;40.918;14.476;2022-08-21T14:24:46;3.35;;;1.80;;
59520;SDS011;54898;40.918;14.476;2022-08-21T14:27:12;4.68;;;2.00;;
59520;SDS011;54898;40.918;14.476;2022-08-21T14:29:42;2.90;;;1.60;;
59520;SDS011;54898;40.918;14.476;2022-08-21T14:32:09;4.55;;;2.42;;
59520;SDS011;54898;40.918;14.476;2022-08-21T14:34:36;3.40;;;2.13;;
59520;SDS011;54898;40.918;14.476;2022-08-21T14:37:02;5.03;;;2.50;;
59520;SDS011;54898;40.918;14.476;2022-08-21T14:39:28;6.90;;;2.55;;
59520;SDS011;54898;40.918;14.476;2022-08-21T14:41:55;6.38;;;2.28;;
59520;SDS011;54898;40.918;14.476;2022-08-21T14:44:23;5.88;;;2.33;;
59520;SDS011;54898;40.918;14.476;2022-08-21T14:46:49;4.05;;;2.45;;
59520;SDS011;54898;40.918;14.476;2022-08-21T14:49:15;5.15;;;2.75;;
59520;SDS011;54898;40.918;14.476;2022-08-21T14:51:41;7.65;;;2.50;;
59520;SDS011;54898;40.918;14.476;2022-08-21T14:54:07;5.18;;;2.47;;
59520;SDS011;54898;40.918;14.476;2022-08-21T14:56:34;6.57;;;2.40;;
59520;SDS011;54898;40.918;14.476;2022-08-21T14:59:04;3.78;;;2.40;;
59520;SDS011;54898;40.918;14.476;2022-08-21T15:01:30;5.10;;;2.20;;
59520;SDS011;54898;40.918;14.476;2022-08-21T15:03:58;4.13;;;2.22;;
59520;SDS011;54898;40.918;14.476;2022-08-21T15:06:24;4.05;;;1.92;;
59520;SDS011;54898;40.918;14.476;2022-08-21T15:08:50;5.65;;;2.17;;
59520;SDS011;54898;40.918;14.476;2022-08-21T15:11:17;4.68;;;2.38;;
59520;SDS011;54898;40.918;14.476;2022-08-21T15:13:44;4.38;;;2.33;;
59520;SDS011;54898;40.918;14.476;2022-08-21T15:16:12;3.85;;;1.92;;
59520;SDS011;54898;40.918;14.476;2022-08-21T15:18:38;3.15;;;2.03;;
59520;SDS011;54898;40.918;14.476;2022-08-21T15:21:05;2.80;;;1.90;;
59520;SDS011;54898;40.918;14.476;2022-08-21T15:23:31;5.55;;;2.20;;
59520;SDS011;54898;40.918;14.476;2022-08-21T15:25:57;7.85;;;2.13;;
59520;SDS011;54898;40.918;14.476;2022-08-21T15:28:24;3.90;;;2.15;;
59520;SDS011;54898;40.918;14.476;2022-08-21T15:30:50;5.15;;;1.80;;
59520;SDS011;54898;40.918;14.476;2022-08-21T15:33:18;6.60;;;1.88;;
59520;SDS011;54898;40.918;14.476;2022-08-21T15:35:44;4.75;;;1.98;;
59520;SDS011;54898;40.918;14.476;2022-08-21T15:38:11;4.53;;;1.80;;
59520;SDS011;54898;40.918;14.476;2022-08-21T15:40:38;3.78;;;2.05;;
59520;SDS011;54898;40.918;14.476;2022-08-21T15:43:05;4.80;;;2.47;;
59520;SDS011;54898;40.918;14.476;2022-08-21T15:45:32;3.45;;;2.25;;
59520;SDS011;54898;40.918;14.476;2022-08-21T15:47:59;3.95;;;1.90;;
59520;SDS011;54898;40.918;14.476;2022-08-21T15:50:26;6.88;;;1.95;;
59520;SDS011;54898;40.918;14.476;2022-08-21T15:52:54;4.00;;;1.98;;
59520;SDS011;54898;40.918;14.476;2022-08-21T15:55:20;3.50;;;2.30;;
59520;SDS011;54898;40.918;14.476;2022-08-21T15:57:48;6.10;;;1.95;;
59520;SDS011;54898;40.918;14.476;2022-08-21T16:00:16;4.07;;;2.20;;
59520;SDS011;54898;40.918;14.476;2022-08-21T16:02:43;4.57;;;2.10;;
59520;SDS011;54898;40.918;14.476;2022-08-21T16:05:11;6.13;;;2.35;;
59520;SDS011;54898;40.918;14.476;2022-08-21T16:07:47;5.22;;;2.08;;
59520;SDS011;54898;40.918;14.476;2022-08-21T16:10:14;3.45;;;2.05;;
59520;SDS011;54898;40.918;14.476;2022-08-21T21:19:40;6.43;;;3.17;;
59520;SDS011;54898;40.918;14.476;2022-08-21T21:24:34;6.55;;;2.85;;
59520;SDS011;54898;40.918;14.476;2022-08-21T21:27:07;7.32;;;3.50;;
59520;SDS011;54898;40.918;14.476;2022-08-21T21:29:38;6.30;;;3.00;;
59520;SDS011;54898;40.918;14.476;2022-08-21T21:32:05;9.65;;;3.00;;
59520;SDS011;54898;40.918;14.476;2022-08-21T21:34:32;7.05;;;3.08;;
59520;SDS011;54898;40.918;14.476;2022-08-21T21:37:01;4.22;;;2.80;;
59520;SDS011;54898;40.918;14.476;2022-08-21T21:39:30;8.43;;;3.15;;
59520;SDS011;54898;40.918;14.476;2022-08-21T21:42:02;10.82;;;3.47;;
59520;SDS011;54898;40.918;14.476;2022-08-21T21:44:35;7.72;;;3.25;;
59520;SDS011;54898;40.918;14.476;2022-08-21T21:47:06;6.80;;;2.83;;
59520;SDS011;54898;40.918;14.476;2022-08-21T21:49:36;6.55;;;3.00;;
59520;SDS011;54898;40.918;14.476;2022-08-21T21:52:12;5.28;;;2.58;;
59520;SDS011;54898;40.918;14.476;2022-08-21T21:54:50;5.68;;;2.80;;
59520;SDS011;54898;40.918;14.476;2022-08-21T21:57:23;9.73;;;3.30;;
59520;SDS011;54898;40.918;14.476;2022-08-21T21:59:52;9.05;;;3.10;;
59520;SDS011;54898;40.918;14.476;2022-08-21T22:02:23;15.63;;;3.55;;
59520;SDS011;54898;40.918;14.476;2022-08-21T22:04:54;9.00;;;3.33;;
59520;SDS011;54898;40.918;14.476;2022-08-21T22:07:27;6.88;;;2.95;;
59520;SDS011;54898;40.918;14.476;2022-08-21T22:09:55;10.20;;;3.22;;